sensor_id;sensor_type;location;lat;lon;timestamp;P1;durP1;ratioP1;P2;durP2;ratioP2
72156;SDS011;60035;52.122;5.406;2022-08-21T00:01:35;5.68;;;2.03;;
72156;SDS011;60035;52.122;5.406;2022-08-21T00:04:05;7.53;;;2.00;;
72156;SDS011;60035;52.122;5.406;2022-08-21T00:06:33;5.15;;;2.10;;
72156;SDS011;60035;52.122;5.406;2022-08-21T00:09:00;5.43;;;2.20;;
72156;SDS011;60035;52.122;5.406;2022-08-21T00:11:32;7.75;;;2.40;;
72156;SDS011;60035;52.122;5.406;2022-08-21T00:13:59;5.05;;;2.13;;
72156;SDS011;60035;52.122;5.406;2022-08-21T00:16:26;4.90;;;2.15;;
72156;SDS011;60035;52.122;5.406;2022-08-21T00:18:52;4.88;;;2.00;;
72156;SDS011;60035;52.122;5.406;2022-08-21T00:21:19;4.95;;;2.20;;
72156;SDS011;60035;52.122;5.406;2022-08-21T00:23:45;5.80;;;2.00;;
72156;SDS011;60035;52.122;5.406;2022-08-21T00:26:12;6.45;;;2.17;;
72156;SDS011;60035;52.122;5.406;2022-08-21T00:28:39;9.75;;;2.22;;
72156;SDS011;60035;52.122;5.406;2022-08-21T00:31:05;5.00;;;2.13;;
72156;SDS011;60035;52.122;5.406;2022-08-21T00:33:32;5.20;;;2.00;;
72156;SDS011;60035;52.122;5.406;2022-08-21T00:36:00;7.28;;;2.75;;
72156;SDS011;60035;52.122;5.406;2022-08-21T00:38:26;5.38;;;2.30;;
72156;SDS011;60035;52.122;5.406;2022-08-21T00:40:54;8.10;;;2.60;;
72156;SDS011;60035;52.122;5.406;2022-08-21T00:43:29;6.38;;;2.50;;
72156;SDS011;60035;52.122;5.406;2022-08-21T00:46:00;7.68;;;2.65;;
72156;SDS011;60035;52.122;5.406;2022-08-21T00:48:28;5.40;;;2.30;;
72156;SDS011;60035;52.122;5.406;2022-08-21T00:53:27;7.10;;;2.20;;
72156;SDS011;60035;52.122;5.406;2022-08-21T00:55:57;7.00;;;2.30;;
72156;SDS011;60035;52.122;5.406;2022-08-21T00:58:26;5.65;;;2.17;;
72156;SDS011;60035;52.122;5.406;2022-08-21T01:00:56;5.15;;;2.35;;
72156;SDS011;60035;52.122;5.406;2022-08-21T01:03:25;5.80;;;2.22;;
72156;SDS011;60035;52.122;5.406;2022-08-21T01:05:52;7.85;;;2.20;;
72156;SDS011;60035;52.122;5.406;2022-08-21T01:08:19;6.07;;;2.20;;
72156;SDS011;60035;52.122;5.406;2022-08-21T01:10:48;6.35;;;2.13;;
72156;SDS011;60035;52.122;5.406;2022-08-21T01:13:20;6.30;;;2.38;;
72156;SDS011;60035;52.122;5.406;2022-08-21T01:15:51;5.82;;;2.17;;
72156;SDS011;60035;52.122;5.406;2022-08-21T01:18:20;5.47;;;2.13;;
72156;SDS011;60035;52.122;5.406;2022-08-21T01:21:08;4.70;;;2.13;;
72156;SDS011;60035;52.122;5.406;2022-08-21T01:23:42;6.20;;;2.33;;
72156;SDS011;60035;52.122;5.406;2022-08-21T01:26:11;6.00;;;2.22;;
72156;SDS011;60035;52.122;5.406;2022-08-21T01:28:48;5.97;;;2.28;;
72156;SDS011;60035;52.122;5.406;2022-08-21T01:31:20;6.75;;;2.17;;
72156;SDS011;60035;52.122;5.406;2022-08-21T01:33:51;6.22;;;2.30;;
72156;SDS011;60035;52.122;5.406;2022-08-21T01:36:18;5.65;;;2.35;;
72156;SDS011;60035;52.122;5.406;2022-08-21T01:38:45;5.38;;;2.20;;
72156;SDS011;60035;52.122;5.406;2022-08-21T01:41:13;6.22;;;2.47;;
72156;SDS011;60035;52.122;5.406;2022-08-21T01:43:41;6.53;;;2.53;;
72156;SDS011;60035;52.122;5.406;2022-08-21T01:46:09;7.18;;;2.55;;
72156;SDS011;60035;52.122;5.406;2022-08-21T01:48:36;6.82;;;2.53;;
72156;SDS011;60035;52.122;5.406;2022-08-21T01:51:03;5.45;;;2.40;;
72156;SDS011;60035;52.122;5.406;2022-08-21T01:53:31;5.55;;;2.67;;
72156;SDS011;60035;52.122;5.406;2022-08-21T01:56:00;8.20;;;2.30;;
72156;SDS011;60035;52.122;5.406;2022-08-21T01:58:26;5.32;;;2.08;;
72156;SDS011;60035;52.122;5.406;2022-08-21T02:00:53;7.15;;;2.42;;
72156;SDS011;60035;52.122;5.406;2022-08-21T02:03:20;5.90;;;2.08;;
72156;SDS011;60035;52.122;5.406;2022-08-21T02:06:02;5.38;;;2.35;;
72156;SDS011;60035;52.122;5.406;2022-08-21T02:08:30;8.00;;;2.33;;
72156;SDS011;60035;52.122;5.406;2022-08-21T02:10:57;6.85;;;2.65;;
72156;SDS011;60035;52.122;5.406;2022-08-21T02:13:24;5.85;;;2.03;;
72156;SDS011;60035;52.122;5.406;2022-08-21T02:15:51;5.97;;;2.33;;
72156;SDS011;60035;52.122;5.406;2022-08-21T02:18:18;6.38;;;2.63;;
72156;SDS011;60035;52.122;5.406;2022-08-21T02:20:45;7.50;;;2.55;;
72156;SDS011;60035;52.122;5.406;2022-08-21T02:23:20;5.32;;;2.13;;
72156;SDS011;60035;52.122;5.406;2022-08-21T02:25:54;6.68;;;2.33;;
72156;SDS011;60035;52.122;5.406;2022-08-21T02:28:23;6.88;;;2.60;;
72156;SDS011;60035;52.122;5.406;2022-08-21T02:30:50;6.38;;;2.08;;
72156;SDS011;60035;52.122;5.406;2022-08-21T02:33:17;5.88;;;2.47;;
72156;SDS011;60035;52.122;5.406;2022-08-21T02:35:45;5.90;;;2.50;;
72156;SDS011;60035;52.122;5.406;2022-08-21T02:38:14;5.82;;;2.20;;
72156;SDS011;60035;52.122;5.406;2022-08-21T02:40:45;6.00;;;2.40;;
72156;SDS011;60035;52.122;5.406;2022-08-21T02:43:16;5.90;;;2.60;;
72156;SDS011;60035;52.122;5.406;2022-08-21T02:45:44;7.90;;;2.70;;
72156;SDS011;60035;52.122;5.406;2022-08-21T02:48:13;6.72;;;2.33;;
72156;SDS011;60035;52.122;5.406;2022-08-21T02:53:11;6.28;;;2.45;;
72156;SDS011;60035;52.122;5.406;2022-08-21T02:55:43;6.90;;;2.33;;
72156;SDS011;60035;52.122;5.406;2022-08-21T02:58:11;7.20;;;2.85;;
72156;SDS011;60035;52.122;5.406;2022-08-21T03:00:39;6.25;;;2.63;;
72156;SDS011;60035;52.122;5.406;2022-08-21T03:03:06;7.68;;;2.72;;
72156;SDS011;60035;52.122;5.406;2022-08-21T03:05:33;6.30;;;2.35;;
72156;SDS011;60035;52.122;5.406;2022-08-21T03:08:01;6.13;;;2.58;;
72156;SDS011;60035;52.122;5.406;2022-08-21T03:10:29;6.07;;;2.30;;
72156;SDS011;60035;52.122;5.406;2022-08-21T03:12:57;7.72;;;2.53;;
72156;SDS011;60035;52.122;5.406;2022-08-21T03:15:24;5.57;;;2.35;;
72156;SDS011;60035;52.122;5.406;2022-08-21T03:17:51;7.57;;;2.50;;
72156;SDS011;60035;52.122;5.406;2022-08-21T03:20:21;8.43;;;2.40;;
72156;SDS011;60035;52.122;5.406;2022-08-21T03:22:51;6.57;;;2.38;;
72156;SDS011;60035;52.122;5.406;2022-08-21T03:25:19;7.30;;;2.75;;
72156;SDS011;60035;52.122;5.406;2022-08-21T03:28:07;7.22;;;2.53;;
72156;SDS011;60035;52.122;5.406;2022-08-21T03:30:39;7.72;;;2.63;;
72156;SDS011;60035;52.122;5.406;2022-08-21T03:33:14;5.15;;;2.17;;
72156;SDS011;60035;52.122;5.406;2022-08-21T03:35:42;5.78;;;1.98;;
72156;SDS011;60035;52.122;5.406;2022-08-21T03:38:10;5.20;;;2.05;;
72156;SDS011;60035;52.122;5.406;2022-08-21T03:40:39;5.20;;;2.40;;
72156;SDS011;60035;52.122;5.406;2022-08-21T03:43:06;6.55;;;2.05;;
72156;SDS011;60035;52.122;5.406;2022-08-21T03:45:35;6.82;;;2.72;;
72156;SDS011;60035;52.122;5.406;2022-08-21T03:48:02;6.07;;;2.53;;
72156;SDS011;60035;52.122;5.406;2022-08-21T03:50:32;9.55;;;2.65;;
72156;SDS011;60035;52.122;5.406;2022-08-21T03:53:05;6.00;;;2.33;;
72156;SDS011;60035;52.122;5.406;2022-08-21T03:55:32;7.60;;;2.70;;
72156;SDS011;60035;52.122;5.406;2022-08-21T03:57:59;5.93;;;2.53;;
72156;SDS011;60035;52.122;5.406;2022-08-21T04:00:42;6.35;;;2.70;;
72156;SDS011;60035;52.122;5.406;2022-08-21T04:03:10;5.47;;;2.10;;
72156;SDS011;60035;52.122;5.406;2022-08-21T04:05:37;6.50;;;2.35;;
72156;SDS011;60035;52.122;5.406;2022-08-21T04:08:04;5.20;;;2.10;;
72156;SDS011;60035;52.122;5.406;2022-08-21T04:10:32;7.57;;;2.80;;
72156;SDS011;60035;52.122;5.406;2022-08-21T04:13:01;7.88;;;3.15;;
72156;SDS011;60035;52.122;5.406;2022-08-21T04:15:29;7.55;;;2.45;;
72156;SDS011;60035;52.122;5.406;2022-08-21T04:17:55;7.72;;;2.38;;
72156;SDS011;60035;52.122;5.406;2022-08-21T04:20:22;7.75;;;2.70;;
72156;SDS011;60035;52.122;5.406;2022-08-21T04:22:49;8.05;;;2.58;;
72156;SDS011;60035;52.122;5.406;2022-08-21T04:25:17;6.50;;;2.60;;
72156;SDS011;60035;52.122;5.406;2022-08-21T04:27:46;8.90;;;3.17;;
72156;SDS011;60035;52.122;5.406;2022-08-21T04:30:13;6.50;;;2.55;;
72156;SDS011;60035;52.122;5.406;2022-08-21T04:32:42;5.82;;;2.10;;
72156;SDS011;60035;52.122;5.406;2022-08-21T04:35:10;8.90;;;2.85;;
72156;SDS011;60035;52.122;5.406;2022-08-21T04:37:39;6.88;;;2.83;;
72156;SDS011;60035;52.122;5.406;2022-08-21T04:40:07;9.68;;;3.50;;
72156;SDS011;60035;52.122;5.406;2022-08-21T04:42:40;6.57;;;2.58;;
72156;SDS011;60035;52.122;5.406;2022-08-21T04:45:27;9.32;;;2.55;;
72156;SDS011;60035;52.122;5.406;2022-08-21T04:47:57;7.50;;;2.75;;
72156;SDS011;60035;52.122;5.406;2022-08-21T04:50:29;6.55;;;2.75;;
72156;SDS011;60035;52.122;5.406;2022-08-21T04:53:02;7.97;;;2.40;;
72156;SDS011;60035;52.122;5.406;2022-08-21T04:55:31;7.50;;;2.80;;
72156;SDS011;60035;52.122;5.406;2022-08-21T04:57:58;8.80;;;2.55;;
72156;SDS011;60035;52.122;5.406;2022-08-21T05:00:25;8.00;;;2.88;;
72156;SDS011;60035;52.122;5.406;2022-08-21T05:02:52;8.50;;;3.00;;
72156;SDS011;60035;52.122;5.406;2022-08-21T05:05:22;9.00;;;3.50;;
72156;SDS011;60035;52.122;5.406;2022-08-21T05:07:50;8.43;;;3.22;;
72156;SDS011;60035;52.122;5.406;2022-08-21T05:10:19;8.57;;;3.72;;
72156;SDS011;60035;52.122;5.406;2022-08-21T05:12:45;7.75;;;3.45;;
72156;SDS011;60035;52.122;5.406;2022-08-21T05:15:12;8.18;;;3.33;;
72156;SDS011;60035;52.122;5.406;2022-08-21T05:17:40;9.52;;;3.78;;
72156;SDS011;60035;52.122;5.406;2022-08-21T05:20:08;9.88;;;4.00;;
72156;SDS011;60035;52.122;5.406;2022-08-21T05:22:36;9.38;;;3.47;;
72156;SDS011;60035;52.122;5.406;2022-08-21T05:25:03;8.00;;;3.50;;
72156;SDS011;60035;52.122;5.406;2022-08-21T05:27:36;9.25;;;3.60;;
72156;SDS011;60035;52.122;5.406;2022-08-21T05:30:06;9.63;;;3.58;;
72156;SDS011;60035;52.122;5.406;2022-08-21T05:32:35;8.75;;;3.28;;
72156;SDS011;60035;52.122;5.406;2022-08-21T05:35:06;8.80;;;3.47;;
72156;SDS011;60035;52.122;5.406;2022-08-21T05:37:33;11.88;;;3.95;;
72156;SDS011;60035;52.122;5.406;2022-08-21T05:40:00;9.27;;;4.10;;
72156;SDS011;60035;52.122;5.406;2022-08-21T05:42:47;10.27;;;3.95;;
72156;SDS011;60035;52.122;5.406;2022-08-21T05:45:20;8.90;;;4.00;;
72156;SDS011;60035;52.122;5.406;2022-08-21T05:48:09;11.98;;;3.88;;
72156;SDS011;60035;52.122;5.406;2022-08-21T05:50:39;11.25;;;3.97;;
72156;SDS011;60035;52.122;5.406;2022-08-21T05:53:06;12.43;;;4.95;;
72156;SDS011;60035;52.122;5.406;2022-08-21T05:55:33;16.95;;;4.93;;
72156;SDS011;60035;52.122;5.406;2022-08-21T05:58:09;12.18;;;4.75;;
72156;SDS011;60035;52.122;5.406;2022-08-21T06:00:36;17.98;;;5.72;;
72156;SDS011;60035;52.122;5.406;2022-08-21T06:03:03;11.50;;;5.25;;
72156;SDS011;60035;52.122;5.406;2022-08-21T06:05:30;14.10;;;5.55;;
72156;SDS011;60035;52.122;5.406;2022-08-21T06:08:03;13.50;;;4.80;;
72156;SDS011;60035;52.122;5.406;2022-08-21T06:10:29;12.93;;;4.95;;
72156;SDS011;60035;52.122;5.406;2022-08-21T06:12:57;15.00;;;5.60;;
72156;SDS011;60035;52.122;5.406;2022-08-21T06:15:23;12.40;;;4.80;;
72156;SDS011;60035;52.122;5.406;2022-08-21T06:17:53;19.45;;;5.18;;
72156;SDS011;60035;52.122;5.406;2022-08-21T06:20:21;13.27;;;5.32;;
72156;SDS011;60035;52.122;5.406;2022-08-21T06:22:47;15.00;;;5.10;;
72156;SDS011;60035;52.122;5.406;2022-08-21T06:25:14;12.45;;;4.70;;
72156;SDS011;60035;52.122;5.406;2022-08-21T06:27:41;14.63;;;4.70;;
72156;SDS011;60035;52.122;5.406;2022-08-21T06:30:07;12.02;;;4.55;;
72156;SDS011;60035;52.122;5.406;2022-08-21T06:32:34;17.25;;;5.13;;
72156;SDS011;60035;52.122;5.406;2022-08-21T06:35:02;14.77;;;4.75;;
72156;SDS011;60035;52.122;5.406;2022-08-21T06:37:29;14.18;;;4.45;;
72156;SDS011;60035;52.122;5.406;2022-08-21T06:39:56;12.90;;;4.22;;
72156;SDS011;60035;52.122;5.406;2022-08-21T06:42:23;14.50;;;4.53;;
72156;SDS011;60035;52.122;5.406;2022-08-21T06:44:54;15.10;;;5.00;;
72156;SDS011;60035;52.122;5.406;2022-08-21T06:47:21;14.55;;;4.60;;
72156;SDS011;60035;52.122;5.406;2022-08-21T06:49:48;14.85;;;4.63;;
72156;SDS011;60035;52.122;5.406;2022-08-21T06:52:14;19.75;;;5.10;;
72156;SDS011;60035;52.122;5.406;2022-08-21T06:54:41;14.73;;;5.00;;
72156;SDS011;60035;52.122;5.406;2022-08-21T06:57:08;12.55;;;4.65;;
72156;SDS011;60035;52.122;5.406;2022-08-21T06:59:35;13.38;;;4.70;;
72156;SDS011;60035;52.122;5.406;2022-08-21T07:02:01;11.93;;;4.93;;
72156;SDS011;60035;52.122;5.406;2022-08-21T07:04:28;14.68;;;5.10;;
72156;SDS011;60035;52.122;5.406;2022-08-21T07:06:56;16.38;;;4.50;;
72156;SDS011;60035;52.122;5.406;2022-08-21T07:09:22;13.40;;;4.63;;
72156;SDS011;60035;52.122;5.406;2022-08-21T07:11:50;15.75;;;4.78;;
72156;SDS011;60035;52.122;5.406;2022-08-21T07:14:19;12.02;;;4.35;;
72156;SDS011;60035;52.122;5.406;2022-08-21T07:16:46;13.13;;;4.60;;
72156;SDS011;60035;52.122;5.406;2022-08-21T07:19:13;16.10;;;4.95;;
72156;SDS011;60035;52.122;5.406;2022-08-21T07:21:40;13.02;;;4.40;;
72156;SDS011;60035;52.122;5.406;2022-08-21T07:24:06;18.33;;;5.15;;
72156;SDS011;60035;52.122;5.406;2022-08-21T07:26:34;12.18;;;3.95;;
72156;SDS011;60035;52.122;5.406;2022-08-21T07:29:01;12.35;;;4.32;;
72156;SDS011;60035;52.122;5.406;2022-08-21T07:31:27;11.60;;;4.40;;
72156;SDS011;60035;52.122;5.406;2022-08-21T07:33:54;16.23;;;4.07;;
72156;SDS011;60035;52.122;5.406;2022-08-21T07:36:20;13.23;;;4.57;;
72156;SDS011;60035;52.122;5.406;2022-08-21T07:38:47;14.93;;;3.95;;
72156;SDS011;60035;52.122;5.406;2022-08-21T07:41:19;16.42;;;4.70;;
72156;SDS011;60035;52.122;5.406;2022-08-21T07:43:47;14.55;;;3.78;;
72156;SDS011;60035;52.122;5.406;2022-08-21T07:48:44;12.68;;;4.07;;
72156;SDS011;60035;52.122;5.406;2022-08-21T07:51:12;9.95;;;3.75;;
72156;SDS011;60035;52.122;5.406;2022-08-21T07:53:41;14.98;;;4.00;;
72156;SDS011;60035;52.122;5.406;2022-08-21T07:56:08;14.65;;;3.95;;
72156;SDS011;60035;52.122;5.406;2022-08-21T07:58:34;14.65;;;3.65;;
72156;SDS011;60035;52.122;5.406;2022-08-21T08:01:01;13.63;;;3.85;;
72156;SDS011;60035;52.122;5.406;2022-08-21T08:03:28;14.00;;;3.70;;
72156;SDS011;60035;52.122;5.406;2022-08-21T08:05:55;14.38;;;3.75;;
72156;SDS011;60035;52.122;5.406;2022-08-21T08:08:22;14.50;;;3.97;;
72156;SDS011;60035;52.122;5.406;2022-08-21T08:10:49;14.18;;;3.50;;
72156;SDS011;60035;52.122;5.406;2022-08-21T08:13:16;13.70;;;3.22;;
72156;SDS011;60035;52.122;5.406;2022-08-21T08:15:43;14.00;;;3.60;;
72156;SDS011;60035;52.122;5.406;2022-08-21T08:18:09;13.38;;;3.05;;
72156;SDS011;60035;52.122;5.406;2022-08-21T08:20:36;12.25;;;3.03;;
72156;SDS011;60035;52.122;5.406;2022-08-21T08:23:03;12.25;;;3.40;;
72156;SDS011;60035;52.122;5.406;2022-08-21T08:25:29;12.05;;;3.92;;
72156;SDS011;60035;52.122;5.406;2022-08-21T08:28:02;13.52;;;3.42;;
72156;SDS011;60035;52.122;5.406;2022-08-21T08:30:42;16.90;;;3.65;;
72156;SDS011;60035;52.122;5.406;2022-08-21T08:33:09;11.05;;;3.55;;
72156;SDS011;60035;52.122;5.406;2022-08-21T08:35:36;10.98;;;2.95;;
72156;SDS011;60035;52.122;5.406;2022-08-21T08:38:04;13.60;;;3.53;;
72156;SDS011;60035;52.122;5.406;2022-08-21T08:40:37;10.65;;;3.58;;
72156;SDS011;60035;52.122;5.406;2022-08-21T08:43:17;14.27;;;3.05;;
72156;SDS011;60035;52.122;5.406;2022-08-21T08:45:46;10.55;;;3.22;;
72156;SDS011;60035;52.122;5.406;2022-08-21T08:49:03;11.23;;;2.85;;
72156;SDS011;60035;52.122;5.406;2022-08-21T08:51:20;12.20;;;3.40;;
72156;SDS011;60035;52.122;5.406;2022-08-21T08:53:54;13.50;;;3.25;;
72156;SDS011;60035;52.122;5.406;2022-08-21T08:56:30;11.05;;;2.97;;
72156;SDS011;60035;52.122;5.406;2022-08-21T08:59:02;12.82;;;3.03;;
72156;SDS011;60035;52.122;5.406;2022-08-21T09:01:38;12.02;;;3.10;;
72156;SDS011;60035;52.122;5.406;2022-08-21T09:04:05;11.38;;;3.17;;
72156;SDS011;60035;52.122;5.406;2022-08-21T09:20:47;11.10;;;2.45;;
72156;SDS011;60035;52.122;5.406;2022-08-21T09:26:17;13.85;;;2.97;;
72156;SDS011;60035;52.122;5.406;2022-08-21T09:28:49;10.63;;;2.72;;
72156;SDS011;60035;52.122;5.406;2022-08-21T09:31:22;9.48;;;2.45;;
72156;SDS011;60035;52.122;5.406;2022-08-21T09:33:58;7.30;;;2.00;;
72156;SDS011;60035;52.122;5.406;2022-08-21T09:36:30;11.93;;;2.70;;
72156;SDS011;60035;52.122;5.406;2022-08-21T09:39:09;11.88;;;2.78;;
72156;SDS011;60035;52.122;5.406;2022-08-21T09:41:37;9.10;;;2.20;;
72156;SDS011;60035;52.122;5.406;2022-08-21T09:44:06;14.35;;;2.20;;
72156;SDS011;60035;52.122;5.406;2022-08-21T09:46:34;11.73;;;2.60;;
72156;SDS011;60035;52.122;5.406;2022-08-21T09:49:02;6.55;;;1.90;;
72156;SDS011;60035;52.122;5.406;2022-08-21T09:51:36;11.10;;;2.78;;
72156;SDS011;60035;52.122;5.406;2022-08-21T09:56:34;11.10;;;2.28;;
72156;SDS011;60035;52.122;5.406;2022-08-21T09:59:39;12.77;;;2.15;;
72156;SDS011;60035;52.122;5.406;2022-08-21T10:02:21;8.60;;;2.00;;
72156;SDS011;60035;52.122;5.406;2022-08-21T10:04:52;8.43;;;1.75;;
72156;SDS011;60035;52.122;5.406;2022-08-21T10:07:21;10.55;;;2.25;;
72156;SDS011;60035;52.122;5.406;2022-08-21T10:09:59;8.73;;;2.40;;
72156;SDS011;60035;52.122;5.406;2022-08-21T10:15:18;11.35;;;2.08;;
72156;SDS011;60035;52.122;5.406;2022-08-21T10:17:58;8.65;;;1.85;;
72156;SDS011;60035;52.122;5.406;2022-08-21T10:20:33;8.77;;;2.03;;
72156;SDS011;60035;52.122;5.406;2022-08-21T10:23:51;10.05;;;2.42;;
72156;SDS011;60035;52.122;5.406;2022-08-21T10:35:02;7.20;;;1.75;;
72156;SDS011;60035;52.122;5.406;2022-08-21T10:37:46;8.40;;;1.48;;
72156;SDS011;60035;52.122;5.406;2022-08-21T10:42:49;8.18;;;1.98;;
72156;SDS011;60035;52.122;5.406;2022-08-21T10:48:22;8.77;;;1.65;;
72156;SDS011;60035;52.122;5.406;2022-08-21T10:56:25;10.35;;;1.80;;
72156;SDS011;60035;52.122;5.406;2022-08-21T11:04:45;4.85;;;1.20;;
72156;SDS011;60035;52.122;5.406;2022-08-21T11:10:32;10.32;;;1.50;;
72156;SDS011;60035;52.122;5.406;2022-08-21T11:18:52;8.75;;;1.42;;
72156;SDS011;60035;52.122;5.406;2022-08-21T11:21:27;7.43;;;1.40;;
72156;SDS011;60035;52.122;5.406;2022-08-21T11:24:03;5.78;;;1.50;;
72156;SDS011;60035;52.122;5.406;2022-08-21T11:26:49;7.80;;;1.38;;
72156;SDS011;60035;52.122;5.406;2022-08-21T11:29:24;6.05;;;1.70;;
72156;SDS011;60035;52.122;5.406;2022-08-21T11:40:24;6.47;;;1.52;;
72156;SDS011;60035;52.122;5.406;2022-08-21T11:48:32;5.15;;;1.58;;
72156;SDS011;60035;52.122;5.406;2022-08-21T11:51:11;7.80;;;1.58;;
72156;SDS011;60035;52.122;5.406;2022-08-21T11:54:28;6.70;;;1.55;;
72156;SDS011;60035;52.122;5.406;2022-08-21T11:56:37;8.25;;;1.58;;
72156;SDS011;60035;52.122;5.406;2022-08-21T11:59:14;7.88;;;1.38;;
72156;SDS011;60035;52.122;5.406;2022-08-21T12:01:46;7.28;;;1.50;;
72156;SDS011;60035;52.122;5.406;2022-08-21T12:04:26;7.72;;;1.77;;
72156;SDS011;60035;52.122;5.406;2022-08-21T12:07:12;9.15;;;2.30;;
72156;SDS011;60035;52.122;5.406;2022-08-21T12:12:34;7.53;;;1.95;;
72156;SDS011;60035;52.122;5.406;2022-08-21T12:15:12;8.05;;;2.05;;
72156;SDS011;60035;52.122;5.406;2022-08-21T12:17:40;11.65;;;2.30;;
72156;SDS011;60035;52.122;5.406;2022-08-21T12:22:52;8.77;;;2.35;;
72156;SDS011;60035;52.122;5.406;2022-08-21T12:25:21;8.60;;;1.90;;
72156;SDS011;60035;52.122;5.406;2022-08-21T12:27:52;10.38;;;2.00;;
72156;SDS011;60035;52.122;5.406;2022-08-21T12:32:55;7.85;;;1.70;;
72156;SDS011;60035;52.122;5.406;2022-08-21T12:35:37;6.10;;;1.83;;
72156;SDS011;60035;52.122;5.406;2022-08-21T12:40:57;5.88;;;2.10;;
72156;SDS011;60035;52.122;5.406;2022-08-21T12:46:00;8.00;;;1.77;;
72156;SDS011;60035;52.122;5.406;2022-08-21T12:48:41;5.70;;;1.75;;
72156;SDS011;60035;52.122;5.406;2022-08-21T12:51:18;6.68;;;1.55;;
72156;SDS011;60035;52.122;5.406;2022-08-21T12:53:56;8.60;;;1.42;;
72156;SDS011;60035;52.122;5.406;2022-08-21T12:56:27;7.30;;;1.70;;
72156;SDS011;60035;52.122;5.406;2022-08-21T12:58:56;7.47;;;1.33;;
72156;SDS011;60035;52.122;5.406;2022-08-21T13:01:38;7.65;;;1.40;;
72156;SDS011;60035;52.122;5.406;2022-08-21T13:04:13;9.93;;;1.90;;
72156;SDS011;60035;52.122;5.406;2022-08-21T13:06:45;4.20;;;1.70;;
72156;SDS011;60035;52.122;5.406;2022-08-21T13:09:16;7.20;;;1.70;;
72156;SDS011;60035;52.122;5.406;2022-08-21T13:11:46;8.60;;;1.45;;
72156;SDS011;60035;52.122;5.406;2022-08-21T13:16:56;7.28;;;1.60;;
72156;SDS011;60035;52.122;5.406;2022-08-21T13:19:25;5.72;;;1.70;;
72156;SDS011;60035;52.122;5.406;2022-08-21T13:21:53;6.32;;;1.83;;
72156;SDS011;60035;52.122;5.406;2022-08-21T13:24:21;6.35;;;1.90;;
72156;SDS011;60035;52.122;5.406;2022-08-21T13:27:22;6.30;;;1.63;;
72156;SDS011;60035;52.122;5.406;2022-08-21T13:30:04;7.63;;;2.17;;
72156;SDS011;60035;52.122;5.406;2022-08-21T13:32:32;5.60;;;1.50;;
72156;SDS011;60035;52.122;5.406;2022-08-21T13:35:15;7.95;;;1.70;;
72156;SDS011;60035;52.122;5.406;2022-08-21T13:37:46;6.13;;;2.03;;
72156;SDS011;60035;52.122;5.406;2022-08-21T13:40:18;8.68;;;1.65;;
72156;SDS011;60035;52.122;5.406;2022-08-21T13:42:52;8.25;;;1.48;;
72156;SDS011;60035;52.122;5.406;2022-08-21T13:45:22;7.35;;;1.90;;
72156;SDS011;60035;52.122;5.406;2022-08-21T13:47:57;13.68;;;2.78;;
72156;SDS011;60035;52.122;5.406;2022-08-21T13:50:31;6.10;;;1.40;;
72156;SDS011;60035;52.122;5.406;2022-08-21T13:53:05;7.55;;;1.60;;
72156;SDS011;60035;52.122;5.406;2022-08-21T13:55:35;8.65;;;1.60;;
72156;SDS011;60035;52.122;5.406;2022-08-21T13:58:09;6.28;;;1.85;;
72156;SDS011;60035;52.122;5.406;2022-08-21T14:00:47;9.30;;;1.70;;
72156;SDS011;60035;52.122;5.406;2022-08-21T14:03:38;7.10;;;1.40;;
72156;SDS011;60035;52.122;5.406;2022-08-21T14:06:11;6.07;;;1.90;;
72156;SDS011;60035;52.122;5.406;2022-08-21T14:08:40;6.05;;;1.67;;
72156;SDS011;60035;52.122;5.406;2022-08-21T14:11:09;6.00;;;1.63;;
72156;SDS011;60035;52.122;5.406;2022-08-21T14:13:40;8.82;;;1.80;;
72156;SDS011;60035;52.122;5.406;2022-08-21T14:16:20;8.13;;;2.40;;
72156;SDS011;60035;52.122;5.406;2022-08-21T14:21:36;6.70;;;1.67;;
72156;SDS011;60035;52.122;5.406;2022-08-21T14:26:42;6.93;;;1.45;;
72156;SDS011;60035;52.122;5.406;2022-08-21T14:29:14;8.45;;;1.63;;
72156;SDS011;60035;52.122;5.406;2022-08-21T14:31:43;6.45;;;1.52;;
72156;SDS011;60035;52.122;5.406;2022-08-21T14:34:16;9.00;;;1.65;;
72156;SDS011;60035;52.122;5.406;2022-08-21T14:36:45;10.05;;;2.00;;
72156;SDS011;60035;52.122;5.406;2022-08-21T14:39:13;6.57;;;1.63;;
72156;SDS011;60035;52.122;5.406;2022-08-21T14:41:39;5.68;;;1.60;;
72156;SDS011;60035;52.122;5.406;2022-08-21T14:44:06;7.30;;;1.75;;
72156;SDS011;60035;52.122;5.406;2022-08-21T14:46:35;7.38;;;1.90;;
72156;SDS011;60035;52.122;5.406;2022-08-21T14:49:25;7.15;;;1.50;;
72156;SDS011;60035;52.122;5.406;2022-08-21T14:51:54;7.38;;;2.10;;
72156;SDS011;60035;52.122;5.406;2022-08-21T14:54:24;5.93;;;1.77;;
72156;SDS011;60035;52.122;5.406;2022-08-21T14:56:58;10.00;;;2.33;;
72156;SDS011;60035;52.122;5.406;2022-08-21T14:59:27;8.27;;;1.92;;
72156;SDS011;60035;52.122;5.406;2022-08-21T15:01:54;9.15;;;1.88;;
72156;SDS011;60035;52.122;5.406;2022-08-21T15:04:22;5.90;;;1.70;;
72156;SDS011;60035;52.122;5.406;2022-08-21T15:06:49;3.85;;;1.42;;
72156;SDS011;60035;52.122;5.406;2022-08-21T15:09:20;6.95;;;1.63;;
72156;SDS011;60035;52.122;5.406;2022-08-21T15:11:47;6.18;;;1.75;;
72156;SDS011;60035;52.122;5.406;2022-08-21T15:14:18;6.25;;;1.80;;
72156;SDS011;60035;52.122;5.406;2022-08-21T15:16:50;6.80;;;1.67;;
72156;SDS011;60035;52.122;5.406;2022-08-21T15:19:16;7.05;;;1.55;;
72156;SDS011;60035;52.122;5.406;2022-08-21T15:21:43;5.95;;;1.30;;
72156;SDS011;60035;52.122;5.406;2022-08-21T15:24:09;4.72;;;1.30;;
72156;SDS011;60035;52.122;5.406;2022-08-21T15:26:36;7.60;;;1.60;;
72156;SDS011;60035;52.122;5.406;2022-08-21T15:29:04;5.72;;;1.38;;
72156;SDS011;60035;52.122;5.406;2022-08-21T15:31:32;5.32;;;1.30;;
72156;SDS011;60035;52.122;5.406;2022-08-21T15:34:00;8.00;;;1.50;;
72156;SDS011;60035;52.122;5.406;2022-08-21T15:36:26;5.63;;;1.30;;
72156;SDS011;60035;52.122;5.406;2022-08-21T15:38:53;4.75;;;1.40;;
72156;SDS011;60035;52.122;5.406;2022-08-21T15:41:19;6.00;;;1.40;;
72156;SDS011;60035;52.122;5.406;2022-08-21T15:43:47;6.60;;;1.40;;
72156;SDS011;60035;52.122;5.406;2022-08-21T15:46:17;9.63;;;1.80;;
72156;SDS011;60035;52.122;5.406;2022-08-21T15:48:45;3.92;;;1.42;;
72156;SDS011;60035;52.122;5.406;2022-08-21T15:51:13;5.75;;;1.55;;
72156;SDS011;60035;52.122;5.406;2022-08-21T15:53:43;6.18;;;1.70;;
72156;SDS011;60035;52.122;5.406;2022-08-21T15:56:14;9.25;;;1.63;;
72156;SDS011;60035;52.122;5.406;2022-08-21T15:58:49;4.82;;;1.30;;
72156;SDS011;60035;52.122;5.406;2022-08-21T16:01:16;4.18;;;1.33;;
72156;SDS011;60035;52.122;5.406;2022-08-21T16:03:44;7.97;;;1.30;;
72156;SDS011;60035;52.122;5.406;2022-08-21T16:06:14;6.40;;;1.27;;
72156;SDS011;60035;52.122;5.406;2022-08-21T16:08:40;6.50;;;1.20;;
72156;SDS011;60035;52.122;5.406;2022-08-21T16:11:07;7.82;;;1.35;;
72156;SDS011;60035;52.122;5.406;2022-08-21T16:13:36;8.23;;;1.55;;
72156;SDS011;60035;52.122;5.406;2022-08-21T16:16:05;7.15;;;1.40;;
72156;SDS011;60035;52.122;5.406;2022-08-21T16:18:32;6.70;;;1.65;;
72156;SDS011;60035;52.122;5.406;2022-08-21T16:20:58;5.28;;;1.45;;
72156;SDS011;60035;52.122;5.406;2022-08-21T16:23:25;7.30;;;1.38;;
72156;SDS011;60035;52.122;5.406;2022-08-21T16:25:51;4.07;;;1.15;;
72156;SDS011;60035;52.122;5.406;2022-08-21T16:28:18;7.10;;;1.55;;
72156;SDS011;60035;52.122;5.406;2022-08-21T16:30:47;5.90;;;1.25;;
72156;SDS011;60035;52.122;5.406;2022-08-21T16:33:20;4.47;;;1.33;;
72156;SDS011;60035;52.122;5.406;2022-08-21T16:36:02;8.30;;;1.23;;
72156;SDS011;60035;52.122;5.406;2022-08-21T16:38:30;7.18;;;1.30;;
72156;SDS011;60035;52.122;5.406;2022-08-21T16:43:27;4.82;;;1.20;;
72156;SDS011;60035;52.122;5.406;2022-08-21T16:45:56;8.20;;;1.45;;